Time;durP1;ratioP1;P1;durP2;ratioP2;P2;SDS_P1;SDS_P2;PMS_P1;PMS_P2;Temp;Humidity;BMP_temperature;BMP_pressure;BME280_temperature;BME280_humidity;BME280_pressure;Samples;Min_cycle;Max_cycle;Signal;HPM_P1;HPM_P2
2022/12/20 00:01:01;;;;;;;15.82;11.93;;;1.40;95.20;;;;;;5133439;27;20637;-65
2022/12/20 00:03:29;;;;;;;18.65;11.82;;;1.50;95.40;;;;;;5133791;27;20234;-66
2022/12/20 00:05:56;;;;;;;17.38;11.48;;;1.50;95.60;;;;;;5133017;27;20247;-65
2022/12/20 00:08:23;;;;;;;18.00;12.63;;;1.50;95.50;;;;;;5133479;27;20234;-65
2022/12/20 00:10:50;;;;;;;17.67;12.43;;;1.60;95.40;;;;;;5133366;27;20230;-66
2022/12/20 00:13:17;;;;;;;19.35;12.57;;;1.50;95.40;;;;;;5133596;27;20191;-66
2022/12/20 00:15:44;;;;;;;23.98;14.00;;;1.50;95.10;;;;;;5134013;27;20252;-66
2022/12/20 00:18:11;;;;;;;17.52;10.02;;;1.50;95.00;;;;;;5134056;27;20195;-65
2022/12/20 00:20:40;;;;;;;15.73;10.65;;;1.50;95.40;;;;;;5133241;27;20195;-65
2022/12/20 00:23:07;;;;;;;18.75;8.93;;;1.50;95.60;;;;;;5133717;27;20183;-66
2022/12/20 00:25:33;;;;;;;21.00;12.70;;;1.50;95.80;;;;;;5133541;27;20266;-66
2022/12/20 00:28:02;;;;;;;15.63;10.00;;;1.60;95.90;;;;;;5133631;27;20307;-66
2022/12/20 00:30:28;;;;;;;16.90;9.38;;;1.60;95.80;;;;;;5133840;27;20227;-66
2022/12/20 00:32:55;;;;;;;13.55;8.23;;;1.60;95.80;;;;;;5133645;27;20324;-66
2022/12/20 00:35:22;;;;;;;11.82;6.97;;;1.70;95.50;;;;;;5132931;27;20203;-66
2022/12/20 00:37:51;;;;;;;13.15;7.00;;;1.50;96.30;;;;;;5133518;27;20191;-66
2022/12/20 00:40:18;;;;;;;11.43;6.53;;;1.50;96.80;;;;;;5131572;27;20180;-66
2022/12/20 00:42:45;;;;;;;12.65;7.88;;;1.50;96.80;;;;;;5133141;27;20190;-66
2022/12/20 00:45:12;;;;;;;10.65;6.78;;;1.50;96.70;;;;;;5132392;27;20219;-67
2022/12/20 00:47:39;;;;;;;11.23;6.10;;;1.40;96.70;;;;;;5129327;27;20664;-66
2022/12/20 00:50:07;;;;;;;8.60;5.95;;;1.30;97.40;;;;;;5132867;27;20187;-66
2022/12/20 00:52:34;;;;;;;8.18;5.70;;;1.30;97.60;;;;;;5132739;27;20199;-65
2022/12/20 00:55:03;;;;;;;10.13;5.22;;;1.40;97.80;;;;;;5133482;27;20659;-66
2022/12/20 00:57:30;;;;;;;10.90;6.28;;;1.50;97.90;;;;;;5132771;27;20227;-69
2022/12/20 00:59:57;;;;;;;9.77;5.10;;;1.50;97.80;;;;;;5133327;27;20223;-65
2022/12/20 01:02:24;;;;;;;7.70;5.25;;;1.60;97.90;;;;;;5133299;27;20198;-66
2022/12/20 01:04:51;;;;;;;11.18;6.32;;;1.60;98.00;;;;;;5132730;27;20208;-66
2022/12/20 01:07:19;;;;;;;7.22;4.55;;;1.70;98.10;;;;;;5132874;27;20630;-66
2022/12/20 01:09:45;;;;;;;9.40;6.22;;;1.70;98.20;;;;;;5133268;27;20223;-66
2022/12/20 01:12:14;;;;;;;8.63;6.22;;;1.80;98.10;;;;;;5132538;28;20653;-66
2022/12/20 01:14:41;;;;;;;9.68;5.80;;;1.80;97.90;;;;;;5132832;28;20271;-65
2022/12/20 01:17:08;;;;;;;10.07;5.43;;;1.90;97.70;;;;;;5132635;27;20223;-66
2022/12/20 01:19:35;;;;;;;7.22;5.68;;;1.90;97.50;;;;;;5133167;27;20249;-65
2022/12/20 01:22:02;;;;;;;6.75;4.47;;;1.90;97.60;;;;;;5132910;27;20191;-66
2022/12/20 01:24:29;;;;;;;10.23;5.15;;;1.90;97.80;;;;;;5131993;27;20171;-66
2022/12/20 01:26:56;;;;;;;7.97;5.30;;;2.00;98.00;;;;;;5132708;27;20219;-66
2022/12/20 01:29:25;;;;;;;7.05;5.40;;;2.10;98.00;;;;;;5133069;27;20224;-66
2022/12/20 01:31:53;;;;;;;7.40;5.25;;;2.10;97.70;;;;;;5132765;27;20223;-66
2022/12/20 01:34:20;;;;;;;8.20;5.22;;;2.10;97.40;;;;;;5132428;27;20187;-66
2022/12/20 01:36:48;;;;;;;9.20;5.40;;;2.10;97.30;;;;;;5132964;28;20241;-67
2022/12/20 01:39:16;;;;;;;9.50;5.57;;;2.00;96.60;;;;;;5131776;27;20207;-66
2022/12/20 01:41:45;;;;;;;10.57;5.68;;;1.90;95.30;;;;;;5132402;27;20184;-66
2022/12/20 01:44:49;;;;;;;9.00;6.38;;;1.80;95.20;;;;;;5132366;27;20271;-65
2022/12/20 01:47:18;;;;;;;9.80;5.78;;;1.80;95.30;;;;;;5132958;27;20520;-66
2022/12/20 01:49:48;;;;;;;7.57;5.28;;;1.70;95.20;;;;;;5132304;28;20706;-66
2022/12/20 01:52:19;;;;;;;8.40;6.30;;;1.70;95.20;;;;;;5131895;27;20227;-66
2022/12/20 01:54:50;;;;;;;9.68;6.22;;;1.70;95.00;;;;;;5132925;28;20191;-65
2022/12/20 01:57:20;;;;;;;8.77;5.82;;;1.60;94.60;;;;;;5132838;28;20184;-66
2022/12/20 01:59:50;;;;;;;9.70;6.40;;;1.50;94.50;;;;;;5133651;27;20233;-67
2022/12/20 02:02:18;;;;;;;10.10;5.97;;;1.40;94.30;;;;;;5135640;27;20215;-65
2022/12/20 02:04:45;;;;;;;9.80;7.00;;;1.40;94.40;;;;;;5135750;27;20703;-66
2022/12/20 02:07:18;;;;;;;9.13;6.32;;;1.40;94.60;;;;;;5135992;27;20183;-66
2022/12/20 02:09:46;;;;;;;9.98;6.00;;;1.30;95.00;;;;;;5134750;27;20225;-66
2022/12/20 02:12:16;;;;;;;7.75;5.63;;;1.30;95.30;;;;;;5134499;27;20637;-66
2022/12/20 02:15:00;;;;;;;10.98;5.80;;;1.30;95.20;;;;;;5136064;27;20219;-66
2022/12/20 02:17:36;;;;;;;8.90;5.20;;;1.30;95.40;;;;;;5136050;27;20550;-65
2022/12/20 02:20:30;;;;;;;9.35;5.65;;;1.30;95.40;;;;;;5135025;27;20172;-66
2022/12/20 02:23:35;;;;;;;7.20;4.68;;;1.30;95.40;;;;;;5136267;27;20188;-65
2022/12/20 02:26:16;;;;;;;7.15;5.05;;;1.30;95.30;;;;;;5136157;27;20274;-66
2022/12/20 02:29:06;;;;;;;7.22;4.95;;;1.30;95.10;;;;;;5136021;27;20198;-65
2022/12/20 02:31:39;;;;;;;7.05;5.00;;;1.30;95.20;;;;;;5132851;27;20195;-66
2022/12/20 02:34:09;;;;;;;6.50;5.22;;;1.20;95.10;;;;;;5135863;27;20275;-66
2022/12/20 02:36:36;;;;;;;7.80;5.15;;;1.20;95.10;;;;;;5135794;27;20323;-66
2022/12/20 02:39:03;;;;;;;11.43;5.95;;;1.10;94.90;;;;;;5135683;27;20223;-66
2022/12/20 02:41:35;;;;;;;10.00;5.03;;;1.20;95.10;;;;;;5134347;27;20219;-65
2022/12/20 02:46:56;;;;;;;6.95;5.32;;;1.10;94.90;;;;;;5135449;27;20214;-65
2022/12/20 02:49:29;;;;;;;6.38;4.40;;;1.10;95.10;;;;;;5115136;28;20197;-66
2022/12/20 02:51:57;;;;;;;10.15;5.40;;;1.10;95.30;;;;;;5114890;28;20224;-65
2022/12/20 02:54:25;;;;;;;7.43;4.82;;;1.10;95.40;;;;;;5122783;27;20188;-66
2022/12/20 02:56:56;;;;;;;6.25;4.65;;;1.10;95.40;;;;;;5135531;27;20191;-66
2022/12/20 02:59:26;;;;;;;7.18;5.30;;;1.10;95.50;;;;;;5134719;27;20226;-65
2022/12/20 03:01:55;;;;;;;6.03;4.55;;;1.20;95.60;;;;;;5135248;27;20295;-66
2022/12/20 03:04:25;;;;;;;5.90;5.07;;;1.10;95.60;;;;;;5135231;27;20252;-65
2022/12/20 03:07:01;;;;;;;10.07;6.78;;;1.00;96.70;;;;;;5135213;27;20558;-66
2022/12/20 03:09:29;;;;;;;7.85;5.40;;;1.00;97.10;;;;;;5134522;27;20259;-65
2022/12/20 03:11:57;;;;;;;8.48;5.50;;;1.00;97.40;;;;;;5134776;27;20223;-66
2022/12/20 03:14:25;;;;;;;7.70;5.22;;;1.00;97.30;;;;;;5133630;27;20268;-66
2022/12/20 03:16:52;;;;;;;5.43;3.83;;;1.10;97.20;;;;;;5134708;27;20279;-66
2022/12/20 03:19:21;;;;;;;8.65;5.70;;;1.10;97.10;;;;;;5134495;27;20275;-65
2022/12/20 03:21:48;;;;;;;8.50;5.70;;;1.10;97.00;;;;;;5134816;27;20199;-66
2022/12/20 03:24:15;;;;;;;6.38;4.53;;;1.10;96.90;;;;;;5134378;27;20236;-66
2022/12/20 03:26:42;;;;;;;7.32;5.20;;;1.10;96.80;;;;;;5134580;27;20228;-65
2022/12/20 03:29:10;;;;;;;7.43;4.50;;;1.20;96.70;;;;;;5134544;27;20191;-65
2022/12/20 03:31:37;;;;;;;7.55;4.65;;;1.20;96.70;;;;;;5134795;27;20268;-65
2022/12/20 03:34:05;;;;;;;7.00;4.97;;;1.20;96.60;;;;;;5134696;27;20236;-65
2022/12/20 03:36:33;;;;;;;9.68;5.93;;;1.20;96.20;;;;;;5134333;27;20247;-66
2022/12/20 03:39:01;;;;;;;8.27;6.15;;;1.10;96.00;;;;;;5133043;27;20208;-66
2022/12/20 03:41:28;;;;;;;10.02;5.53;;;1.10;96.00;;;;;;5134426;27;20230;-66
2022/12/20 03:43:55;;;;;;;10.85;5.97;;;1.20;96.10;;;;;;5133640;27;20207;-67
2022/12/20 03:46:22;;;;;;;8.95;5.40;;;1.20;96.20;;;;;;5134560;27;20307;-66
2022/12/20 03:48:49;;;;;;;6.55;4.80;;;1.20;96.20;;;;;;5134367;27;20272;-66
2022/12/20 03:51:15;;;;;;;6.70;4.93;;;1.20;96.40;;;;;;5134366;27;20586;-66
2022/12/20 03:53:44;;;;;;;5.00;4.07;;;1.30;96.70;;;;;;5133603;27;20187;-66
2022/12/20 03:56:11;;;;;;;8.35;5.28;;;1.30;96.90;;;;;;5133772;27;20183;-66
2022/12/20 03:58:38;;;;;;;6.95;4.22;;;1.40;96.90;;;;;;5133213;27;20188;-65
2022/12/20 04:01:17;;;;;;;9.32;5.57;;;1.40;97.10;;;;;;5133882;27;20247;-65
2022/12/20 04:03:44;;;;;;;9.50;5.40;;;1.50;97.20;;;;;;5134370;27;20514;-66
2022/12/20 04:06:11;;;;;;;8.30;5.10;;;1.50;97.00;;;;;;5134349;27;20272;-65
2022/12/20 04:08:38;;;;;;;5.40;3.70;;;1.50;96.60;;;;;;5134472;27;20512;-66
2022/12/20 04:11:15;;;;;;;5.72;4.20;;;1.50;96.60;;;;;;5134253;27;20271;-66
2022/12/20 04:13:43;;;;;;;6.50;4.38;;;1.50;95.90;;;;;;5133849;27;20183;-66
2022/12/20 04:16:12;;;;;;;5.03;3.72;;;1.40;95.80;;;;;;5134322;27;20187;-66
2022/12/20 04:18:39;;;;;;;7.35;4.10;;;1.40;95.80;;;;;;5134015;27;20204;-66
2022/12/20 04:21:07;;;;;;;8.68;5.43;;;1.40;95.70;;;;;;5133891;27;20228;-66
2022/12/20 04:23:34;;;;;;;8.45;5.00;;;1.40;95.40;;;;;;5132821;27;20191;-66
2022/12/20 04:26:02;;;;;;;7.70;5.00;;;1.40;95.20;;;;;;5128066;27;20620;-66
2022/12/20 04:28:30;;;;;;;6.40;4.43;;;1.40;95.40;;;;;;5132247;27;20180;-66
2022/12/20 04:30:58;;;;;;;6.30;3.42;;;1.40;95.40;;;;;;5133684;27;20194;-66
2022/12/20 04:33:26;;;;;;;4.82;3.88;;;1.50;95.70;;;;;;5132877;27;20184;-65
2022/12/20 04:35:53;;;;;;;5.63;4.05;;;1.50;96.40;;;;;;5132619;27;20715;-65
2022/12/20 04:38:21;;;;;;;6.30;4.07;;;1.50;96.60;;;;;;5133216;27;20179;-66
2022/12/20 04:40:49;;;;;;;7.50;3.30;;;1.50;97.00;;;;;;5133542;27;20229;-66
2022/12/20 04:43:16;;;;;;;6.40;4.13;;;1.60;97.40;;;;;;5133234;27;20663;-66
2022/12/20 04:45:46;;;;;;;5.97;4.25;;;1.70;98.00;;;;;;5133609;27;20241;-66
2022/12/20 04:48:14;;;;;;;7.20;5.00;;;1.70;98.00;;;;;;5133738;27;20244;-66
2022/12/20 04:50:41;;;;;;;7.85;4.93;;;1.80;98.00;;;;;;5134021;27;20256;-64
2022/12/20 04:55:55;;;;;;;9.88;3.60;;;1.90;97.70;;;;;;5133487;28;20202;-65
2022/12/20 04:58:22;;;;;;;5.82;4.53;;;2.00;97.70;;;;;;5133132;28;20183;-64
2022/12/20 05:00:52;;;;;;;8.65;3.67;;;2.00;97.40;;;;;;5130847;27;20184;-65
2022/12/20 05:03:19;;;;;;;6.07;3.50;;;2.00;97.50;;;;;;5131355;27;20514;-64
2022/12/20 05:05:46;;;;;;;7.72;4.35;;;2.00;97.40;;;;;;5132297;28;20219;-64
2022/12/20 05:08:14;;;;;;;4.47;2.90;;;2.10;97.40;;;;;;5133525;27;20283;-65
2022/12/20 05:10:41;;;;;;;4.85;3.35;;;2.10;97.30;;;;;;5133495;27;20240;-65
2022/12/20 05:13:08;;;;;;;6.05;4.10;;;2.10;97.30;;;;;;5133402;28;20249;-65
2022/12/20 05:15:35;;;;;;;8.68;4.28;;;2.20;97.20;;;;;;5133466;28;20187;-64
2022/12/20 05:18:04;;;;;;;7.60;4.97;;;2.10;96.90;;;;;;5133049;27;20206;-64
2022/12/20 05:20:31;;;;;;;9.38;5.05;;;2.10;96.90;;;;;;5133686;27;20225;-65
2022/12/20 05:28:31;;;;;;;10.90;5.72;;;2.10;96.80;;;;;;5132418;27;20195;-65
2022/12/20 05:30:58;;;;;;;9.00;5.10;;;2.10;96.80;;;;;;5133320;27;20198;-66
2022/12/20 05:33:27;;;;;;;8.55;5.25;;;2.10;96.90;;;;;;5133203;27;20192;-66
2022/12/20 05:35:55;;;;;;;9.52;6.60;;;2.10;96.90;;;;;;5135694;27;20611;-66
2022/12/20 05:38:22;;;;;;;13.43;7.93;;;2.20;96.90;;;;;;5137089;27;20183;-66
2022/12/20 05:40:51;;;;;;;17.08;9.48;;;2.10;97.00;;;;;;5135470;27;20184;-67
2022/12/20 05:43:22;;;;;;;14.10;9.05;;;2.10;97.40;;;;;;5136713;27;20188;-66
2022/12/20 05:45:51;;;;;;;16.13;8.30;;;2.20;97.50;;;;;;5136405;27;20275;-67
2022/12/20 05:48:19;;;;;;;18.58;9.90;;;2.20;97.60;;;;;;5136693;27;20191;-66
2022/12/20 05:50:47;;;;;;;16.50;9.90;;;2.20;97.60;;;;;;5137119;27;20205;-67
2022/12/20 05:53:16;;;;;;;18.55;11.73;;;2.30;97.50;;;;;;5137013;27;20187;-67
2022/12/20 05:55:45;;;;;;;22.38;14.05;;;2.30;97.50;;;;;;5135856;27;20233;-68
2022/12/20 05:58:13;;;;;;;16.33;11.00;;;2.30;97.50;;;;;;5136618;27;20237;-67
2022/12/20 06:00:42;;;;;;;16.95;10.32;;;2.40;97.50;;;;;;5134657;27;20192;-64
2022/12/20 06:03:12;;;;;;;16.50;8.95;;;2.40;97.50;;;;;;5133958;27;20593;-65
2022/12/20 06:05:39;;;;;;;20.75;10.50;;;2.40;97.30;;;;;;5136983;27;20187;-65
2022/12/20 06:08:09;;;;;;;13.73;8.50;;;2.40;97.30;;;;;;5136713;27;20280;-67
2022/12/20 06:10:36;;;;;;;23.45;13.25;;;2.30;97.80;;;;;;5134837;27;20184;-65
2022/12/20 06:13:09;;;;;;;22.52;14.20;;;2.40;98.10;;;;;;5135925;27;20248;-65
2022/12/20 06:15:37;;;;;;;16.52;9.77;;;2.40;98.20;;;;;;5135843;27;20192;-65
2022/12/20 06:18:04;;;;;;;11.00;9.13;;;2.40;98.30;;;;;;5136458;27;20251;-65
2022/12/20 06:20:32;;;;;;;13.80;9.15;;;2.40;98.50;;;;;;5136394;27;20192;-65
2022/12/20 06:23:00;;;;;;;11.35;7.43;;;2.50;98.70;;;;;;5136367;27;20219;-66
2022/12/20 06:25:29;;;;;;;11.50;8.30;;;2.50;98.60;;;;;;5134974;27;20237;-65
2022/12/20 06:27:58;;;;;;;9.57;6.68;;;2.50;98.40;;;;;;5135174;27;20302;-65
2022/12/20 06:30:25;;;;;;;9.30;7.38;;;2.50;98.30;;;;;;5133529;27;20190;-65
2022/12/20 06:32:53;;;;;;;10.20;7.70;;;2.50;98.10;;;;;;5135933;27;20196;-64
2022/12/20 06:35:20;;;;;;;14.52;6.88;;;2.50;98.10;;;;;;5134197;27;20296;-65
2022/12/20 06:37:47;;;;;;;11.13;7.20;;;2.50;98.20;;;;;;5136191;27;20191;-65
2022/12/20 06:40:15;;;;;;;9.18;6.70;;;2.50;98.30;;;;;;5134753;27;20215;-65
2022/12/20 06:42:43;;;;;;;7.65;5.15;;;2.50;98.20;;;;;;5136186;27;20705;-65
2022/12/20 06:45:11;;;;;;;7.40;4.97;;;2.50;98.20;;;;;;5132134;27;20179;-66
2022/12/20 06:47:38;;;;;;;9.10;5.85;;;2.60;98.20;;;;;;5115221;28;20243;-65
2022/12/20 06:50:06;;;;;;;9.23;6.70;;;2.60;98.30;;;;;;5123350;27;20223;-65
2022/12/20 06:52:34;;;;;;;9.75;6.65;;;2.60;98.30;;;;;;5135939;27;20228;-66
2022/12/20 06:55:01;;;;;;;5.95;4.57;;;2.60;98.30;;;;;;5133362;27;20542;-66
2022/12/20 06:57:33;;;;;;;5.90;4.43;;;2.70;98.60;;;;;;5134787;27;20184;-66
2022/12/20 07:00:04;;;;;;;6.28;4.50;;;2.70;98.10;;;;;;5133921;27;20551;-66
2022/12/20 07:02:32;;;;;;;5.25;3.53;;;2.70;98.20;;;;;;5135294;27;20197;-65
2022/12/20 07:04:59;;;;;;;5.43;3.67;;;2.70;97.80;;;;;;5135609;27;20211;-65
2022/12/20 07:07:26;;;;;;;6.55;4.28;;;2.70;97.70;;;;;;5132687;27;20200;-65
2022/12/20 07:09:53;;;;;;;5.75;3.85;;;2.70;97.50;;;;;;5135260;27;20196;-65
2022/12/20 07:12:20;;;;;;;8.25;5.75;;;2.70;97.40;;;;;;5126683;27;20584;-66
2022/12/20 07:14:52;;;;;;;8.40;5.18;;;2.60;97.10;;;;;;5134699;27;20187;-65
2022/12/20 07:17:21;;;;;;;9.38;4.57;;;2.50;96.20;;;;;;5134182;27;20215;-65
2022/12/20 07:19:48;;;;;;;5.53;4.45;;;2.40;95.80;;;;;;5130685;27;20189;-66
2022/12/20 07:22:15;;;;;;;8.32;4.82;;;2.30;96.00;;;;;;5130962;27;20222;-65
2022/12/20 07:24:43;;;;;;;9.00;5.30;;;2.30;96.30;;;;;;5134611;27;20196;-66
2022/12/20 07:27:12;;;;;;;7.18;4.50;;;2.30;96.60;;;;;;5134539;27;20244;-66
2022/12/20 07:29:40;;;;;;;9.85;6.03;;;2.30;96.80;;;;;;5132400;27;20229;-66
2022/12/20 07:32:08;;;;;;;13.40;7.82;;;2.30;97.00;;;;;;5133944;27;20284;-66
2022/12/20 07:34:38;;;;;;;14.25;7.03;;;2.30;97.20;;;;;;5133417;27;20191;-66
2022/12/20 07:37:05;;;;;;;27.48;16.20;;;2.40;97.40;;;;;;5134379;27;20583;-66
2022/12/20 07:39:32;;;;;;;35.17;18.23;;;2.40;97.20;;;;;;5133903;27;20196;-67
2022/12/20 07:41:59;;;;;;;16.17;8.48;;;2.40;97.10;;;;;;5130073;27;20184;-68
2022/12/20 07:44:26;;;;;;;10.05;6.07;;;2.40;96.90;;;;;;5129829;27;20183;-67
2022/12/20 07:46:53;;;;;;;6.80;4.80;;;2.40;96.80;;;;;;5133089;27;20598;-67
2022/12/20 07:49:21;;;;;;;8.45;5.55;;;2.40;95.70;;;;;;5113387;28;20199;-68
2022/12/20 07:51:53;;;;;;;14.77;4.72;;;2.30;95.40;;;;;;5124289;27;20191;-67
2022/12/20 07:54:22;;;;;;;6.43;5.13;;;2.30;95.80;;;;;;5134615;27;20686;-66
2022/12/20 07:56:54;;;;;;;6.63;4.22;;;2.30;96.20;;;;;;5133531;27;20196;-67
2022/12/20 07:59:26;;;;;;;6.00;4.40;;;2.40;96.50;;;;;;5134427;27;20184;-67
2022/12/20 08:01:54;;;;;;;8.13;5.60;;;2.50;96.80;;;;;;5134669;27;20264;-67
2022/12/20 08:04:25;;;;;;;7.07;5.10;;;2.50;97.00;;;;;;5134587;27;20188;-67
2022/12/20 08:06:56;;;;;;;10.98;8.50;;;2.60;97.40;;;;;;5134332;27;20211;-67
2022/12/20 08:09:25;;;;;;;13.20;8.35;;;2.70;97.90;;;;;;5133943;27;20227;-67
2022/12/20 08:11:53;;;;;;;11.10;9.25;;;2.80;98.10;;;;;;5134350;27;20192;-67
2022/12/20 08:14:20;;;;;;;16.02;9.60;;;2.90;98.30;;;;;;5134291;27;20230;-67
2022/12/20 08:16:49;;;;;;;13.85;10.45;;;3.00;98.40;;;;;;5134244;27;20196;-67
2022/12/20 08:19:16;;;;;;;12.00;10.23;;;3.10;98.40;;;;;;5134173;27;20657;-67
2022/12/20 08:21:43;;;;;;;13.65;9.02;;;3.20;98.40;;;;;;5134325;27;20192;-67
2022/12/20 08:24:11;;;;;;;10.48;7.88;;;3.20;98.20;;;;;;5134226;27;20196;-67
2022/12/20 08:26:40;;;;;;;11.82;7.75;;;3.30;98.10;;;;;;5134089;27;20252;-67
2022/12/20 08:29:08;;;;;;;9.32;7.28;;;3.40;98.10;;;;;;5133658;27;20686;-67
2022/12/20 08:31:38;;;;;;;7.82;7.03;;;3.40;97.90;;;;;;5133999;27;20646;-67
2022/12/20 08:34:05;;;;;;;7.55;6.03;;;3.50;97.80;;;;;;5133949;27;20184;-64
2022/12/20 08:36:32;;;;;;;9.43;6.47;;;3.60;97.70;;;;;;5133838;27;20622;-64
2022/12/20 08:39:01;;;;;;;9.70;7.45;;;3.60;97.50;;;;;;5133785;27;20641;-64
2022/12/20 08:41:31;;;;;;;15.10;9.23;;;3.70;97.30;;;;;;5134012;27;20188;-66
2022/12/20 08:43:58;;;;;;;8.10;6.80;;;3.60;97.00;;;;;;5133987;27;20199;-65
2022/12/20 08:46:26;;;;;;;11.85;9.85;;;3.70;97.30;;;;;;5133994;27;20203;-65
2022/12/20 08:48:53;;;;;;;9.07;5.72;;;3.80;97.40;;;;;;5133743;27;20272;-65
2022/12/20 08:51:20;;;;;;;7.35;5.95;;;3.80;97.30;;;;;;5131326;28;20200;-66
2022/12/20 08:53:47;;;;;;;10.70;6.78;;;3.80;96.70;;;;;;5133875;27;20245;-66
2022/12/20 08:56:17;;;;;;;9.95;7.07;;;3.80;96.60;;;;;;5133669;27;20229;-66
2022/12/20 08:58:45;;;;;;;11.00;7.25;;;3.80;96.60;;;;;;5133596;28;20187;-66
2022/12/20 09:01:15;;;;;;;9.98;7.88;;;3.80;96.70;;;;;;5133864;28;20202;-66
2022/12/20 09:03:42;;;;;;;9.02;7.07;;;3.90;96.70;;;;;;5133615;27;20192;-66
2022/12/20 09:06:12;;;;;;;16.00;9.63;;;3.90;96.70;;;;;;5133851;27;20199;-66
2022/12/20 09:08:40;;;;;;;14.25;9.90;;;4.00;97.00;;;;;;5134569;27;20219;-66
2022/12/20 09:11:10;;;;;;;12.18;8.73;;;4.10;97.30;;;;;;5137969;27;20223;-66
2022/12/20 09:13:38;;;;;;;11.20;8.45;;;4.30;97.30;;;;;;5137803;27;20223;-65
2022/12/20 09:16:07;;;;;;;11.50;7.90;;;4.50;97.60;;;;;;5137708;27;20192;-66
2022/12/20 09:18:35;;;;;;;10.68;8.10;;;4.60;97.50;;;;;;5137726;27;20575;-66
2022/12/20 09:21:04;;;;;;;9.45;7.65;;;4.80;97.40;;;;;;5137753;27;20240;-65
2022/12/20 09:23:32;;;;;;;15.70;9.82;;;5.00;97.20;;;;;;5137714;27;20183;-66
2022/12/20 09:26:02;;;;;;;14.82;9.40;;;5.20;96.90;;;;;;5137614;27;20240;-66
2022/12/20 09:28:29;;;;;;;14.02;9.25;;;5.40;96.50;;;;;;5137309;27;20223;-65
2022/12/20 09:30:58;;;;;;;10.85;8.13;;;5.50;96.20;;;;;;5137497;27;20196;-65
2022/12/20 09:33:27;;;;;;;9.73;7.85;;;5.60;95.60;;;;;;5136915;27;20215;-65
2022/12/20 09:35:59;;;;;;;10.20;8.20;;;5.70;95.30;;;;;;5136778;27;20605;-66
2022/12/20 09:38:27;;;;;;;15.88;12.32;;;5.80;95.10;;;;;;5137475;27;20268;-66
2022/12/20 09:40:57;;;;;;;14.25;10.73;;;5.90;93.80;;;;;;5137232;27;20641;-66
2022/12/20 09:43:29;;;;;;;14.77;12.30;;;5.80;93.50;;;;;;5137202;27;20223;-66
2022/12/20 09:45:59;;;;;;;12.10;9.80;;;5.90;93.80;;;;;;5136755;27;20227;-66
2022/12/20 09:48:31;;;;;;;12.98;11.23;;;6.00;94.20;;;;;;5136683;27;20309;-66
2022/12/20 09:51:07;;;;;;;13.00;11.23;;;6.00;93.70;;;;;;5137258;27;20278;-66
2022/12/20 09:53:42;;;;;;;15.25;9.45;;;6.10;94.10;;;;;;5137169;27;20226;-67
2022/12/20 09:56:14;;;;;;;19.33;14.48;;;6.10;93.30;;;;;;5136688;27;20248;-66
2022/12/20 09:58:57;;;;;;;19.17;14.68;;;6.00;93.10;;;;;;5137067;27;20191;-67
2022/12/20 10:01:27;;;;;;;19.80;14.23;;;6.00;93.30;;;;;;5137067;27;20183;-67
2022/12/20 10:03:57;;;;;;;13.18;10.00;;;6.00;93.20;;;;;;5136574;27;20275;-66
2022/12/20 10:06:36;;;;;;;11.52;9.18;;;6.00;93.40;;;;;;5136583;27;20275;-66
2022/12/20 10:09:09;;;;;;;17.30;12.95;;;6.10;93.30;;;;;;5136192;27;20254;-66
2022/12/20 10:11:56;;;;;;;18.40;14.00;;;6.00;92.70;;;;;;5136662;27;20191;-66
2022/12/20 10:14:41;;;;;;;19.52;13.60;;;5.90;92.80;;;;;;5136629;27;20196;-66
2022/12/20 10:17:12;;;;;;;17.85;13.38;;;6.00;93.10;;;;;;5136830;27;20240;-66
2022/12/20 10:20:07;;;;;;;13.80;12.35;;;6.00;93.00;;;;;;5136606;27;20188;-66
2022/12/20 10:22:40;;;;;;;13.07;9.75;;;6.00;93.20;;;;;;5136339;27;20195;-66
2022/12/20 10:25:17;;;;;;;16.85;13.18;;;6.10;93.50;;;;;;5136399;27;20192;-66
2022/12/20 10:27:45;;;;;;;16.63;13.98;;;6.10;93.20;;;;;;5136186;27;20211;-67
2022/12/20 10:30:14;;;;;;;16.90;13.80;;;6.20;93.20;;;;;;5136471;27;20225;-66
2022/12/20 10:32:44;;;;;;;19.90;14.75;;;6.30;92.70;;;;;;5136390;27;20232;-66
2022/12/20 10:35:27;;;;;;;16.65;13.27;;;6.40;92.30;;;;;;5136208;27;20276;-66
2022/12/20 10:38:02;;;;;;;18.75;14.10;;;6.50;92.10;;;;;;5136401;27;20219;-66
2022/12/20 10:40:32;;;;;;;15.05;12.77;;;6.60;91.90;;;;;;5136421;27;20234;-66
2022/12/20 10:43:00;;;;;;;21.13;16.75;;;6.80;91.90;;;;;;5136137;27;20278;-67
2022/12/20 10:45:36;;;;;;;19.25;15.20;;;6.90;92.00;;;;;;5131172;27;20280;-66
2022/12/20 10:48:06;;;;;;;18.48;15.30;;;6.90;91.50;;;;;;5134143;27;20310;-66
2022/12/20 10:50:34;;;;;;;17.50;15.25;;;6.90;91.60;;;;;;5133980;27;20219;-66
2022/12/20 10:53:21;;;;;;;23.08;15.48;;;6.90;91.20;;;;;;5131860;27;20666;-67
2022/12/20 10:55:48;;;;;;;19.58;15.20;;;6.90;91.40;;;;;;5131800;27;20237;-67
2022/12/20 10:58:17;;;;;;;17.45;13.35;;;7.00;91.60;;;;;;5133527;27;20286;-67
2022/12/20 11:00:45;;;;;;;18.73;13.43;;;7.20;92.30;;;;;;5134059;27;20201;-67
2022/12/20 11:03:16;;;;;;;24.25;18.30;;;7.40;92.00;;;;;;5133934;27;20591;-67
2022/12/20 11:05:56;;;;;;;25.38;19.55;;;7.60;92.00;;;;;;5133257;27;20237;-67
2022/12/20 11:08:25;;;;;;;22.25;18.17;;;7.80;91.30;;;;;;5133850;27;20222;-67
2022/12/20 11:11:10;;;;;;;21.92;16.50;;;7.80;90.70;;;;;;5134031;27;20544;-67
2022/12/20 11:13:37;;;;;;;21.83;15.82;;;8.00;91.00;;;;;;5133790;27;20290;-66
2022/12/20 11:16:04;;;;;;;21.58;15.68;;;8.20;90.80;;;;;;5133418;27;20722;-67
2022/12/20 11:18:42;;;;;;;16.88;15.07;;;8.40;90.50;;;;;;5134546;27;20259;-67
2022/12/20 11:21:25;;;;;;;17.10;13.73;;;8.50;89.90;;;;;;5135678;27;20197;-67
2022/12/20 11:24:02;;;;;;;13.27;11.73;;;8.60;88.40;;;;;;5135307;27;20217;-67
2022/12/20 11:26:44;;;;;;;15.23;11.85;;;8.60;87.80;;;;;;5133104;27;20264;-67
2022/12/20 11:29:24;;;;;;;19.83;15.57;;;8.60;87.00;;;;;;5135116;27;20740;-67
2022/12/20 11:32:02;;;;;;;18.38;15.20;;;8.40;84.90;;;;;;5135362;27;20528;-67
2022/12/20 11:34:39;;;;;;;18.52;16.55;;;8.20;83.60;;;;;;5135010;27;20590;-67
2022/12/20 11:37:18;;;;;;;14.65;13.13;;;8.00;83.20;;;;;;5134794;27;20189;-67
2022/12/20 11:39:55;;;;;;;15.98;13.40;;;7.70;83.00;;;;;;5134749;27;20267;-66
2022/12/20 11:42:27;;;;;;;16.40;14.27;;;7.40;84.10;;;;;;5134950;27;20189;-67
2022/12/20 11:45:03;;;;;;;18.63;15.13;;;7.30;85.70;;;;;;5134354;27;20202;-67
2022/12/20 11:47:54;;;;;;;20.25;16.05;;;7.30;86.50;;;;;;5133766;27;20216;-67
2022/12/20 11:50:39;;;;;;;16.77;15.07;;;7.20;87.50;;;;;;5114614;27;20584;-67
2022/12/20 11:53:25;;;;;;;22.77;18.48;;;7.20;88.20;;;;;;5121026;27;20189;-67
2022/12/20 11:55:54;;;;;;;30.67;22.90;;;7.20;88.70;;;;;;5134649;27;20219;-67
2022/12/20 11:58:27;;;;;;;22.58;17.75;;;7.10;88.80;;;;;;5133814;27;20184;-67
2022/12/20 12:00:57;;;;;;;29.48;24.35;;;6.90;89.70;;;;;;5134550;27;20211;-67
2022/12/20 12:03:32;;;;;;;27.67;19.65;;;6.80;90.00;;;;;;5134949;27;20604;-67
2022/12/20 12:06:04;;;;;;;25.20;20.63;;;6.80;90.50;;;;;;5134398;27;20600;-66
2022/12/20 12:08:41;;;;;;;35.80;25.38;;;6.80;90.90;;;;;;5133863;27;20214;-67
2022/12/20 12:11:15;;;;;;;31.65;24.95;;;6.80;91.20;;;;;;5134497;27;20633;-67
2022/12/20 12:13:43;;;;;;;39.92;26.70;;;6.90;91.30;;;;;;5132893;27;20267;-67
2022/12/20 12:16:16;;;;;;;28.38;24.00;;;6.90;91.40;;;;;;5133641;27;20180;-67
2022/12/20 12:18:43;;;;;;;29.40;20.10;;;7.00;91.40;;;;;;5134750;27;20591;-66
2022/12/20 12:21:20;;;;;;;26.27;20.63;;;7.00;91.30;;;;;;5134325;27;20277;-66
2022/12/20 12:23:59;;;;;;;24.77;18.70;;;7.00;91.30;;;;;;5126808;27;20226;-67
2022/12/20 12:26:29;;;;;;;22.58;15.82;;;7.00;91.40;;;;;;5131404;27;20183;-67
2022/12/20 12:28:59;;;;;;;21.17;16.52;;;6.90;91.40;;;;;;5132333;27;20288;-67
2022/12/20 12:31:31;;;;;;;18.48;14.15;;;6.90;91.40;;;;;;5133591;27;20679;-66
2022/12/20 12:34:13;;;;;;;19.10;15.95;;;6.90;91.80;;;;;;5134399;27;20234;-67
2022/12/20 12:37:09;;;;;;;17.88;14.30;;;6.90;91.70;;;;;;5133667;27;20689;-67
2022/12/20 12:40:21;;;;;;;19.30;13.80;;;7.00;91.90;;;;;;5134250;27;20239;-66
2022/12/20 12:43:20;;;;;;;18.50;14.55;;;7.00;91.70;;;;;;5134120;27;20702;-66
2022/12/20 12:45:49;;;;;;;15.55;13.68;;;7.00;91.50;;;;;;5133868;27;20176;-67
2022/12/20 12:48:20;;;;;;;14.50;13.00;;;7.10;91.30;;;;;;5134092;27;20223;-67
2022/12/20 12:50:50;;;;;;;18.80;14.90;;;7.10;91.20;;;;;;5134407;27;20223;-67
2022/12/20 12:53:21;;;;;;;12.57;9.63;;;7.10;91.50;;;;;;5134510;27;20239;-67
2022/12/20 12:55:51;;;;;;;13.23;10.85;;;7.30;91.70;;;;;;5134125;28;20240;-67
2022/12/20 12:58:40;;;;;;;14.30;12.80;;;7.30;91.50;;;;;;5134279;27;20219;-67
2022/12/20 13:01:11;;;;;;;14.82;12.25;;;7.30;91.30;;;;;;5134102;27;20274;-66
2022/12/20 13:03:45;;;;;;;18.67;14.27;;;7.30;91.30;;;;;;5134173;27;20300;-67
2022/12/20 13:06:55;;;;;;;16.52;14.02;;;7.30;91.40;;;;;;5133877;28;20236;-66
2022/12/20 13:09:36;;;;;;;21.00;15.27;;;7.30;91.30;;;;;;5134023;27;20215;-66
2022/12/20 13:12:51;;;;;;;18.80;16.80;;;7.20;91.00;;;;;;5133827;27;20249;-66
2022/12/20 13:15:48;;;;;;;15.68;14.02;;;7.10;91.20;;;;;;5133989;27;20279;-67
2022/12/20 13:18:27;;;;;;;24.35;17.70;;;7.10;91.10;;;;;;5133952;27;20191;-66